createdAt,value
2024-02-29T04:41:24.801Z,100.00
2024-02-29T04:44:28.009Z,100.00
2024-02-29T04:47:30.645Z,100.00
2024-02-29T04:50:33.669Z,100.00
2024-02-29T04:53:37.181Z,100.00
2024-02-29T04:56:41.066Z,100.00
2024-02-29T04:59:43.853Z,100.00
2024-02-29T05:02:46.813Z,100.00
2024-02-29T05:05:49.509Z,100.00
2024-02-29T05:08:52.446Z,100.00
2024-02-29T05:11:55.125Z,100.00
2024-02-29T05:14:58.202Z,100.00
2024-02-29T05:18:01.084Z,100.00
2024-02-29T05:21:03.973Z,100.00
2024-02-29T05:24:06.613Z,100.00
2024-02-29T05:27:09.433Z,100.00
2024-02-29T05:30:12.605Z,100.00
2024-02-29T05:33:15.786Z,100.00
2024-02-29T05:36:18.539Z,100.00
2024-02-29T05:39:21.785Z,100.00
2024-02-29T05:42:25.801Z,100.00
2024-02-29T05:45:28.971Z,100.00
2024-02-29T05:48:36.321Z,100.00
2024-02-29T05:51:39.422Z,100.00
2024-02-29T05:54:42.249Z,100.00
2024-02-29T05:57:45.195Z,100.00
2024-02-29T06:00:47.829Z,100.00
2024-02-29T06:03:50.748Z,100.00
2024-02-29T06:06:53.378Z,100.00
2024-02-29T06:09:56.320Z,100.00
2024-02-29T06:12:59.073Z,100.00
2024-02-29T06:16:04.496Z,100.00
2024-02-29T06:19:07.309Z,100.00
2024-02-29T06:22:10.260Z,100.00
2024-02-29T06:25:13.264Z,100.00
2024-02-29T06:28:19.506Z,100.00
2024-02-29T06:31:26.816Z,100.00
2024-02-29T06:34:30.234Z,100.00
2024-02-29T06:37:32.889Z,100.00
2024-02-29T06:40:37.202Z,100.00
2024-02-29T06:43:39.828Z,100.00
2024-02-29T06:46:42.807Z,100.00
2024-02-29T06:49:45.515Z,100.00
2024-02-29T06:52:48.795Z,100.00
2024-02-29T06:55:52.905Z,100.00
2024-02-29T06:58:55.911Z,100.00
2024-02-29T07:01:58.665Z,100.00
2024-02-29T07:05:01.739Z,100.00
2024-02-29T07:08:04.905Z,100.00
2024-02-29T07:11:12.687Z,100.00
2024-02-29T07:14:17.587Z,100.00
2024-02-29T07:17:20.550Z,100.00
2024-02-29T07:20:25.253Z,100.00
2024-02-29T07:23:29.661Z,100.00
2024-02-29T07:26:32.458Z,100.00
2024-02-29T07:29:35.352Z,100.00
2024-02-29T07:32:38.015Z,100.00
2024-02-29T07:35:41.217Z,100.00
2024-02-29T07:38:44.081Z,100.00
2024-02-29T07:41:46.831Z,100.00
2024-02-29T07:44:51.775Z,100.00
2024-02-29T07:47:54.907Z,100.00
2024-02-29T07:50:57.632Z,100.00
2024-02-29T07:54:00.740Z,100.00
2024-02-29T07:57:03.464Z,100.00
2024-02-29T08:00:08.747Z,100.00
2024-02-29T08:03:13.267Z,100.00
2024-02-29T08:06:18.595Z,100.00
2024-02-29T08:09:21.319Z,100.00
2024-02-29T08:12:26.703Z,100.00
2024-02-29T08:15:29.245Z,100.00
2024-02-29T08:18:32.386Z,100.00
2024-02-29T08:21:37.332Z,100.00
2024-02-29T08:24:41.107Z,100.00
2024-02-29T08:27:43.788Z,100.00
2024-02-29T08:30:46.676Z,100.00
2024-02-29T08:33:49.416Z,100.00
2024-02-29T08:36:52.617Z,100.00
2024-02-29T08:39:55.944Z,100.00
2024-02-29T08:42:58.938Z,100.00
2024-02-29T08:46:05.285Z,100.00
2024-02-29T08:49:08.635Z,100.00
2024-02-29T08:52:11.298Z,100.00
2024-02-29T08:55:14.291Z,100.00
2024-02-29T08:58:16.882Z,100.00
2024-02-29T09:01:21.025Z,100.00
2024-02-29T09:04:23.953Z,100.00
2024-02-29T09:07:27.530Z,100.00
2024-02-29T09:10:30.434Z,100.00
2024-02-29T09:13:35.866Z,100.00
2024-02-29T09:16:39.040Z,100.00
2024-02-29T09:19:42.208Z,98.56
2024-02-29T09:22:44.957Z,96.71
2024-02-29T09:25:48.133Z,96.28
2024-02-29T09:28:50.876Z,97.09
2024-02-29T09:31:53.762Z,94.78
2024-02-29T09:34:56.486Z,94.43
2024-02-29T09:37:59.588Z,94.01
2024-02-29T09:41:12.804Z,92.82
2024-02-29T09:52:37.709Z,86.82
2024-02-29T09:55:41.333Z,85.18
2024-02-29T09:58:44.481Z,88.97
2024-02-29T10:01:53.456Z,87.67
2024-02-29T10:04:57.462Z,80.90
2024-02-29T10:08:03.296Z,84.63
2024-02-29T10:11:11.806Z,82.45
2024-02-29T10:14:55.112Z,83.44
2024-02-29T10:17:58.465Z,81.91
2024-02-29T10:21:11.720Z,83.50
2024-02-29T10:24:15.578Z,82.18
2024-02-29T10:27:19.207Z,83.30
2024-02-29T10:30:22.341Z,81.83
2024-02-29T10:33:26.682Z,83.41
2024-02-29T10:36:32.899Z,83.98
2024-02-29T10:39:39.524Z,80.34
2024-02-29T10:42:43.087Z,79.21
2024-02-29T10:45:50.380Z,79.49
2024-02-29T10:49:17.771Z,79.80
2024-02-29T10:52:26.424Z,79.68
2024-02-29T10:55:35.107Z,77.93
2024-02-29T10:58:43.872Z,78.03
2024-02-29T11:01:48.303Z,74.89
2024-02-29T11:04:51.900Z,73.19
2024-02-29T11:07:55.077Z,72.91
2024-02-29T11:10:58.980Z,69.40
2024-02-29T11:14:12.637Z,69.79
2024-02-29T11:17:16.061Z,67.75
2024-02-29T11:20:22.706Z,67.22
2024-02-29T11:23:36.825Z,64.40
2024-02-29T11:26:39.830Z,64.22
2024-02-29T11:29:47.540Z,61.67
2024-02-29T11:32:52.357Z,64.34
2024-02-29T11:35:56.284Z,63.42
2024-02-29T11:38:59.983Z,60.16
2024-02-29T11:42:04.334Z,59.39
2024-02-29T11:45:08.434Z,57.13
2024-02-29T11:48:11.210Z,55.41
2024-02-29T11:51:14.220Z,57.68
2024-02-29T11:54:17.456Z,56.44
2024-02-29T11:57:23.020Z,57.13
2024-02-29T12:00:27.860Z,57.59
2024-02-29T12:03:31.363Z,55.67
2024-02-29T12:06:34.853Z,55.25
2024-02-29T12:09:38.310Z,55.44
2024-02-29T12:12:41.335Z,55.51
2024-02-29T12:15:45.729Z,53.09
2024-02-29T12:18:48.403Z,53.09
2024-02-29T12:55:51.699Z,52.97
2024-02-29T13:00:37.256Z,100.00
2024-02-29T13:38:15.651Z,52.97
2024-02-29T13:41:18.896Z,52.97
2024-02-29T13:44:21.867Z,42.67
2024-02-29T13:47:24.966Z,43.34
2024-02-29T13:50:27.838Z,44.04
2024-02-29T13:53:30.698Z,45.44
2024-02-29T13:56:34.295Z,45.37
2024-02-29T13:59:37.412Z,46.27
2024-02-29T14:02:40.157Z,47.74
2024-02-29T14:05:43.116Z,48.72
2024-02-29T14:08:45.916Z,49.11
2024-02-29T14:11:48.880Z,49.44
2024-02-29T14:14:52.088Z,50.47
2024-02-29T14:17:55.285Z,50.53
2024-02-29T14:20:58.125Z,49.22
2024-02-29T14:24:01.392Z,48.54
2024-02-29T14:27:04.398Z,44.19
2024-02-29T14:30:10.461Z,43.48
2024-02-29T14:33:14.781Z,42.35
2024-02-29T14:36:19.626Z,42.07
2024-02-29T14:39:23.294Z,41.71
2024-02-29T14:42:28.596Z,43.04
2024-02-29T14:45:31.625Z,44.92
2024-02-29T14:48:34.664Z,46.79
2024-02-29T14:51:37.193Z,47.51
2024-02-29T14:54:44.278Z,47.30
2024-02-29T14:57:47.349Z,47.46
2024-02-29T15:00:50.348Z,48.96
2024-02-29T15:03:53.491Z,50.93
2024-02-29T15:06:56.569Z,51.65
2024-02-29T15:10:00.595Z,54.77
2024-02-29T15:13:03.969Z,55.31
2024-02-29T15:16:06.936Z,56.65
2024-02-29T15:19:14.132Z,56.35
2024-02-29T15:22:17.135Z,57.69
2024-02-29T15:25:21.157Z,57.35
2024-02-29T15:28:28.998Z,58.33
2024-02-29T15:31:32.297Z,59.95
2024-02-29T15:34:35.158Z,61.43
2024-02-29T15:37:38.527Z,61.95
2024-02-29T15:40:43.090Z,63.78
2024-02-29T15:43:47.167Z,64.69
2024-02-29T15:46:51.490Z,65.67
2024-02-29T15:49:54.649Z,66.90
2024-02-29T15:52:57.378Z,70.13
2024-02-29T15:56:03.685Z,69.46
2024-02-29T15:59:26.346Z,72.63
2024-02-29T16:02:32.597Z,72.86
2024-02-29T16:05:35.898Z,74.66
2024-02-29T16:08:38.907Z,77.05
2024-02-29T16:11:43.841Z,77.15
2024-02-29T16:14:49.440Z,78.60
2024-02-29T16:17:54.941Z,80.62
2024-02-29T16:20:58.078Z,82.88
2024-02-29T16:24:00.985Z,83.07
2024-02-29T16:27:03.918Z,81.64
2024-02-29T16:30:07.796Z,84.60
2024-02-29T16:33:13.327Z,87.68
